Airfield :
LOGIN :

Register | Disclaimer

   EN    FR    IT 

 










Legend :    VFR   Marginal VFR   IFR   Intensive IFR   Very Intensive IFR
Visi :
Ceiling :
>= 8 km
>= 3000ft
5 to 8 km
1000 to 3000 ft
1500m to 5 km
500 to 1000 ft
800 to 1500m
200 to 500 ft
< 800m
< 200 ft
Symbols :   Thunderstorms  Fog  Heavy snow  Heavy precipitations  Wind > 20 kt
SIGMETs :     Misc.  Thunderstorms  Icing  Turbulence  Mountain Waves  Volcanic Ashes






- Airport Elevation : 1247 ft
- IATA code : PRG


LKPR - Praha Ruzyne

CURRENT METAR :
  • 120507Z 15006KT 9999 BKN020 M01/M04 Q1004 RMK REG QNH 1002

EXPIRED METARs :
  • 120430Z 15006KT 9999 BKN021 BKN048 M01/M04 Q1004 NOSIG
  • 120400Z 16006KT 9999 FEW020 SCT030 BKN046 M01/M04 Q1004 NOSIG
  • 120330Z 15006KT 9999 SCT020 BKN030 BKN046 M01/M04 Q1005 NOSIG
  • 120300Z 15007KT 9999 -SN SCT020 BKN033 BKN046 M01/M05 Q1005 NOSIG
  • 120230Z 15007KT 9999 SCT021 OVC025 M01/M05 Q1005 TEMPO BKN017

TAF TAF LKPR
Valid from the 12 at 00:00 until the 13 at 06:00 UTC


112300Z 1200/1306 18007KT 9999 BKN025
TEMPO 1205/1211 6000 -RASN BKN014
TEMPO 1211/1218 SCT030



MET'MAP, your aeronautical weather chart ! - Copyright ORBIFLY December 2007 - Disclaimer

ORBIFLY MET'MAP TEAM :

Programming & Development : Alexandra Zaïnal
Concept & original design : Baudouin d'Aumeries
Assistance for programming : Marc-Olivier Méhu
Technical & hardware support : Manuel Goepfert

Contact : metmap@orbifly.com




SOURCES & CREDITS :

   NOAA